sensor_id;sensor_type;location;lat;lon;timestamp;temperature;humidity
41168;DHT22;26906;45.658;9.272;2023-02-15T06:36:12;4.40;99.90
41168;DHT22;26906;45.658;9.272;2023-02-15T06:38:38;4.50;99.90
41168;DHT22;26906;45.658;9.272;2023-02-15T06:41:04;4.50;99.90
41168;DHT22;26906;45.658;9.272;2023-02-15T06:43:31;4.60;99.90
41168;DHT22;26906;45.658;9.272;2023-02-15T06:45:57;4.60;99.90
41168;DHT22;26906;45.658;9.272;2023-02-15T06:48:22;4.60;99.90
41168;DHT22;26906;45.658;9.272;2023-02-15T06:50:48;4.60;99.90
41168;DHT22;26906;45.658;9.272;2023-02-15T06:53:14;4.60;99.90
41168;DHT22;26906;45.658;9.272;2023-02-15T06:55:40;4.90;99.90
41168;DHT22;26906;45.658;9.272;2023-02-15T06:58:06;4.60;99.90
41168;DHT22;26906;45.658;9.272;2023-02-15T07:00:31;4.80;99.90
41168;DHT22;26906;45.658;9.272;2023-02-15T07:02:58;5.10;99.90
41168;DHT22;26906;45.658;9.272;2023-02-15T07:05:25;4.90;99.90
41168;DHT22;26906;45.658;9.272;2023-02-15T07:07:59;5.00;99.90
41168;DHT22;26906;45.658;9.272;2023-02-15T07:10:26;5.10;99.90
41168;DHT22;26906;45.658;9.272;2023-02-15T07:12:53;5.10;99.90
41168;DHT22;26906;45.658;9.272;2023-02-15T07:15:19;5.20;99.90
41168;DHT22;26906;45.658;9.272;2023-02-15T07:17:48;5.20;99.90
41168;DHT22;26906;45.658;9.272;2023-02-15T07:20:16;5.30;99.90
41168;DHT22;26906;45.658;9.272;2023-02-15T07:22:43;5.30;99.90
41168;DHT22;26906;45.658;9.272;2023-02-15T07:25:10;5.50;99.90
41168;DHT22;26906;45.658;9.272;2023-02-15T07:27:37;5.90;99.90
41168;DHT22;26906;45.658;9.272;2023-02-15T07:30:07;5.70;99.90
41168;DHT22;26906;45.658;9.272;2023-02-15T07:32:33;5.90;99.90
41168;DHT22;26906;45.658;9.272;2023-02-15T07:34:59;6.10;99.90
41168;DHT22;26906;45.658;9.272;2023-02-15T07:37:26;6.20;99.90
41168;DHT22;26906;45.658;9.272;2023-02-15T07:39:52;6.40;99.90
41168;DHT22;26906;45.658;9.272;2023-02-15T07:42:18;6.50;99.90
41168;DHT22;26906;45.658;9.272;2023-02-15T07:44:46;6.70;99.90
41168;DHT22;26906;45.658;9.272;2023-02-15T07:47:13;6.80;99.90
41168;DHT22;26906;45.658;9.272;2023-02-15T07:49:39;7.00;99.90
41168;DHT22;26906;45.658;9.272;2023-02-15T07:52:07;7.20;99.90
41168;DHT22;26906;45.658;9.272;2023-02-15T07:54:33;7.20;99.90
41168;DHT22;26906;45.658;9.272;2023-02-15T07:57:00;7.30;99.90
41168;DHT22;26906;45.658;9.272;2023-02-15T07:59:26;7.50;99.90
41168;DHT22;26906;45.658;9.272;2023-02-15T08:01:52;7.70;99.90
41168;DHT22;26906;45.658;9.272;2023-02-15T08:04:19;7.80;99.90
41168;DHT22;26906;45.658;9.272;2023-02-15T08:06:45;8.00;99.90
41168;DHT22;26906;45.658;9.272;2023-02-15T08:09:14;8.10;99.90
41168;DHT22;26906;45.658;9.272;2023-02-15T08:11:39;8.40;99.90
41168;DHT22;26906;45.658;9.272;2023-02-15T08:16:46;8.80;99.90
41168;DHT22;26906;45.658;9.272;2023-02-15T08:19:15;9.00;99.90
41168;DHT22;26906;45.658;9.272;2023-02-15T08:21:43;9.10;99.90
41168;DHT22;26906;45.658;9.272;2023-02-15T08:24:11;9.40;99.90
41168;DHT22;26906;45.658;9.272;2023-02-15T08:26:37;9.70;99.90
41168;DHT22;26906;45.658;9.272;2023-02-15T08:29:05;9.60;99.90
41168;DHT22;26906;45.658;9.272;2023-02-15T08:31:33;9.70;99.90
41168;DHT22;26906;45.658;9.272;2023-02-15T08:33:59;9.80;99.90
41168;DHT22;26906;45.658;9.272;2023-02-15T08:36:28;10.00;99.90
41168;DHT22;26906;45.658;9.272;2023-02-15T08:38:55;10.20;99.90
41168;DHT22;26906;45.658;9.272;2023-02-15T08:41:25;10.30;99.90
41168;DHT22;26906;45.658;9.272;2023-02-15T08:43:55;10.50;99.90
41168;DHT22;26906;45.658;9.272;2023-02-15T08:46:22;10.60;99.90
41168;DHT22;26906;45.658;9.272;2023-02-15T08:48:54;10.70;99.90
41168;DHT22;26906;45.658;9.272;2023-02-15T08:51:26;10.90;99.90
41168;DHT22;26906;45.658;9.272;2023-02-15T08:53:57;11.20;99.90
41168;DHT22;26906;45.658;9.272;2023-02-15T08:56:25;11.40;99.90
41168;DHT22;26906;45.658;9.272;2023-02-15T08:58:52;11.60;99.90
41168;DHT22;26906;45.658;9.272;2023-02-15T09:01:20;11.70;99.90
41168;DHT22;26906;45.658;9.272;2023-02-15T09:03:52;11.90;99.90
41168;DHT22;26906;45.658;9.272;2023-02-15T09:06:21;12.10;99.90
41168;DHT22;26906;45.658;9.272;2023-02-15T09:08:48;12.30;99.90
41168;DHT22;26906;45.658;9.272;2023-02-15T09:11:22;12.40;99.90
41168;DHT22;26906;45.658;9.272;2023-02-15T09:13:54;12.50;99.90
41168;DHT22;26906;45.658;9.272;2023-02-15T09:16:25;12.70;99.90
41168;DHT22;26906;45.658;9.272;2023-02-15T09:18:52;12.80;99.90
41168;DHT22;26906;45.658;9.272;2023-02-15T09:21:22;13.00;99.90
41168;DHT22;26906;45.658;9.272;2023-02-15T09:23:50;13.10;99.90
41168;DHT22;26906;45.658;9.272;2023-02-15T09:26:19;13.30;99.90
41168;DHT22;26906;45.658;9.272;2023-02-15T09:28:46;13.40;99.90
41168;DHT22;26906;45.658;9.272;2023-02-15T09:31:17;13.50;99.90
41168;DHT22;26906;45.658;9.272;2023-02-15T09:33:44;13.70;99.90
41168;DHT22;26906;45.658;9.272;2023-02-15T09:36:28;13.70;99.90
41168;DHT22;26906;45.658;9.272;2023-02-15T09:39:14;13.90;99.90
41168;DHT22;26906;45.658;9.272;2023-02-15T09:44:53;14.10;99.90
41168;DHT22;26906;45.658;9.272;2023-02-15T09:55:54;14.50;99.90
41168;DHT22;26906;45.658;9.272;2023-02-15T10:07:31;15.00;99.90
41168;DHT22;26906;45.658;9.272;2023-02-15T10:16:02;15.40;99.90
41168;DHT22;26906;45.658;9.272;2023-02-15T10:18:51;15.60;99.90
41168;DHT22;26906;45.658;9.272;2023-02-15T10:25:12;15.80;99.90
41168;DHT22;26906;45.658;9.272;2023-02-15T10:27:46;15.80;99.90
41168;DHT22;26906;45.658;9.272;2023-02-15T10:30:59;15.80;99.90
41168;DHT22;26906;45.658;9.272;2023-02-15T10:40:51;16.20;99.90
41168;DHT22;26906;45.658;9.272;2023-02-15T10:57:36;16.50;99.90
41168;DHT22;26906;45.658;9.272;2023-02-15T11:00:22;16.60;99.90
41168;DHT22;26906;45.658;9.272;2023-02-15T11:08:29;16.80;99.90
41168;DHT22;26906;45.658;9.272;2023-02-15T11:11:04;16.80;99.90
41168;DHT22;26906;45.658;9.272;2023-02-15T11:13:36;16.90;99.90
41168;DHT22;26906;45.658;9.272;2023-02-15T11:19:30;17.20;99.90
41168;DHT22;26906;45.658;9.272;2023-02-15T11:21:59;17.40;99.90
41168;DHT22;26906;45.658;9.272;2023-02-15T11:24:30;17.60;99.90
41168;DHT22;26906;45.658;9.272;2023-02-15T11:27:21;17.70;99.60
41168;DHT22;26906;45.658;9.272;2023-02-15T11:29:59;17.80;99.40
41168;DHT22;26906;45.658;9.272;2023-02-15T11:32:35;17.70;99.00
41168;DHT22;26906;45.658;9.272;2023-02-15T11:37:50;17.80;98.70
41168;DHT22;26906;45.658;9.272;2023-02-15T11:40:21;17.90;98.80
41168;DHT22;26906;45.658;9.272;2023-02-15T11:42:50;17.70;98.30
41168;DHT22;26906;45.658;9.272;2023-02-15T11:45:32;17.70;99.30
41168;DHT22;26906;45.658;9.272;2023-02-15T11:47:58;17.90;99.40
41168;DHT22;26906;45.658;9.272;2023-02-15T11:50:29;18.10;98.50
41168;DHT22;26906;45.658;9.272;2023-02-15T11:53:02;18.30;97.30
41168;DHT22;26906;45.658;9.272;2023-02-15T11:55:32;18.30;97.20
41168;DHT22;26906;45.658;9.272;2023-02-15T12:00:45;18.50;97.70
41168;DHT22;26906;45.658;9.272;2023-02-15T12:03:38;18.50;97.90
41168;DHT22;26906;45.658;9.272;2023-02-15T12:06:17;18.60;97.90
41168;DHT22;26906;45.658;9.272;2023-02-15T12:09:14;18.80;99.60
41168;DHT22;26906;45.658;9.272;2023-02-15T12:11:39;18.80;96.70
41168;DHT22;26906;45.658;9.272;2023-02-15T12:14:08;18.80;97.10
41168;DHT22;26906;45.658;9.272;2023-02-15T12:16:48;18.80;96.50
41168;DHT22;26906;45.658;9.272;2023-02-15T12:19:27;18.70;96.40
41168;DHT22;26906;45.658;9.272;2023-02-15T12:21:53;18.70;96.30
41168;DHT22;26906;45.658;9.272;2023-02-15T12:24:28;18.90;96.20
41168;DHT22;26906;45.658;9.272;2023-02-15T12:29:30;18.90;96.00
41168;DHT22;26906;45.658;9.272;2023-02-15T12:31:57;19.10;97.20
41168;DHT22;26906;45.658;9.272;2023-02-15T12:34:36;19.30;96.50
41168;DHT22;26906;45.658;9.272;2023-02-15T12:37:11;19.50;96.10
41168;DHT22;26906;45.658;9.272;2023-02-15T12:39:51;19.20;95.40
41168;DHT22;26906;45.658;9.272;2023-02-15T12:42:17;19.30;96.10
41168;DHT22;26906;45.658;9.272;2023-02-15T12:47:22;19.30;94.60
41168;DHT22;26906;45.658;9.272;2023-02-15T12:52:34;19.40;93.70
41168;DHT22;26906;45.658;9.272;2023-02-15T12:55:23;19.40;93.90
41168;DHT22;26906;45.658;9.272;2023-02-15T12:58:24;19.60;94.30
41168;DHT22;26906;45.658;9.272;2023-02-15T13:03:40;19.60;94.50
41168;DHT22;26906;45.658;9.272;2023-02-15T13:06:17;19.70;94.40
41168;DHT22;26906;45.658;9.272;2023-02-15T13:08:54;19.70;93.70
41168;DHT22;26906;45.658;9.272;2023-02-15T13:11:31;19.70;93.40
41168;DHT22;26906;45.658;9.272;2023-02-15T13:14:30;19.70;93.90
41168;DHT22;26906;45.658;9.272;2023-02-15T13:17:00;19.60;93.30
41168;DHT22;26906;45.658;9.272;2023-02-15T13:19:39;19.60;93.60
41168;DHT22;26906;45.658;9.272;2023-02-15T13:22:16;19.70;93.60
41168;DHT22;26906;45.658;9.272;2023-02-15T13:24:47;19.60;93.10
41168;DHT22;26906;45.658;9.272;2023-02-15T13:27:19;19.70;93.00
41168;DHT22;26906;45.658;9.272;2023-02-15T13:29:51;19.70;93.20
41168;DHT22;26906;45.658;9.272;2023-02-15T13:32:31;19.60;93.70
41168;DHT22;26906;45.658;9.272;2023-02-15T13:35:00;19.80;93.70
41168;DHT22;26906;45.658;9.272;2023-02-15T13:37:45;19.80;92.90
41168;DHT22;26906;45.658;9.272;2023-02-15T13:43:23;19.70;92.70
41168;DHT22;26906;45.658;9.272;2023-02-15T13:49:12;19.50;92.80
41168;DHT22;26906;45.658;9.272;2023-02-15T13:54:35;19.60;92.90
41168;DHT22;26906;45.658;9.272;2023-02-15T13:57:28;19.60;92.50
41168;DHT22;26906;45.658;9.272;2023-02-15T14:00:15;19.60;92.20
41168;DHT22;26906;45.658;9.272;2023-02-15T14:17:03;19.70;92.40
41168;DHT22;26906;45.658;9.272;2023-02-15T14:19:46;19.80;92.40
41168;DHT22;26906;45.658;9.272;2023-02-15T14:22:18;19.70;92.30
41168;DHT22;26906;45.658;9.272;2023-02-15T14:30:28;19.50;92.40
41168;DHT22;26906;45.658;9.272;2023-02-15T14:32:59;19.40;91.40
41168;DHT22;26906;45.658;9.272;2023-02-15T14:35:28;19.40;92.20
41168;DHT22;26906;45.658;9.272;2023-02-15T14:38:00;19.40;92.10
41168;DHT22;26906;45.658;9.272;2023-02-15T15:02:17;19.10;92.70
41168;DHT22;26906;45.658;9.272;2023-02-15T15:07:53;19.10;92.60
41168;DHT22;26906;45.658;9.272;2023-02-15T15:12:56;19.00;93.30
41168;DHT22;26906;45.658;9.272;2023-02-15T15:18:10;18.90;92.80
41168;DHT22;26906;45.658;9.272;2023-02-15T15:20:48;18.70;93.40
41168;DHT22;26906;45.658;9.272;2023-02-15T15:26:01;18.70;93.40
41168;DHT22;26906;45.658;9.272;2023-02-15T15:31:37;18.30;93.80
41168;DHT22;26906;45.658;9.272;2023-02-15T15:39:48;18.20;94.80
41168;DHT22;26906;45.658;9.272;2023-02-15T15:48:19;17.90;95.60
41168;DHT22;26906;45.658;9.272;2023-02-15T15:50:52;17.80;95.80
41168;DHT22;26906;45.658;9.272;2023-02-15T15:53:24;17.70;96.00
41168;DHT22;26906;45.658;9.272;2023-02-15T15:55:59;17.60;96.10
41168;DHT22;26906;45.658;9.272;2023-02-15T15:58:26;17.50;96.20
41168;DHT22;26906;45.658;9.272;2023-02-15T16:00:55;17.40;96.50
41168;DHT22;26906;45.658;9.272;2023-02-15T16:03:25;17.30;96.80
41168;DHT22;26906;45.658;9.272;2023-02-15T16:05:52;17.20;96.80
41168;DHT22;26906;45.658;9.272;2023-02-15T16:08:33;17.10;96.90
41168;DHT22;26906;45.658;9.272;2023-02-15T16:11:15;17.10;97.20
41168;DHT22;26906;45.658;9.272;2023-02-15T16:13:43;17.00;97.50
41168;DHT22;26906;45.658;9.272;2023-02-15T16:16:13;16.90;97.70
41168;DHT22;26906;45.658;9.272;2023-02-15T16:18:39;16.80;98.00
41168;DHT22;26906;45.658;9.272;2023-02-15T16:21:17;16.70;98.00
41168;DHT22;26906;45.658;9.272;2023-02-15T16:27:08;16.50;98.30
41168;DHT22;26906;45.658;9.272;2023-02-15T16:29:52;16.40;98.60
41168;DHT22;26906;45.658;9.272;2023-02-15T16:32:23;16.30;99.90
41168;DHT22;26906;45.658;9.272;2023-02-15T16:34:55;16.30;99.90
41168;DHT22;26906;45.658;9.272;2023-02-15T16:37:25;16.30;99.90
41168;DHT22;26906;45.658;9.272;2023-02-15T16:39:57;16.20;99.90
41168;DHT22;26906;45.658;9.272;2023-02-15T16:42:24;16.00;99.90
41168;DHT22;26906;45.658;9.272;2023-02-15T16:45:03;15.70;99.90
41168;DHT22;26906;45.658;9.272;2023-02-15T16:47:36;15.60;99.90
41168;DHT22;26906;45.658;9.272;2023-02-15T16:50:05;15.60;99.90
41168;DHT22;26906;45.658;9.272;2023-02-15T16:52:31;15.50;99.90
41168;DHT22;26906;45.658;9.272;2023-02-15T16:54:59;15.40;99.90
41168;DHT22;26906;45.658;9.272;2023-02-15T16:57:28;15.20;99.90
41168;DHT22;26906;45.658;9.272;2023-02-15T17:00:03;15.20;99.90
41168;DHT22;26906;45.658;9.272;2023-02-15T17:02:33;15.10;99.90
41168;DHT22;26906;45.658;9.272;2023-02-15T17:07:48;14.90;99.90
41168;DHT22;26906;45.658;9.272;2023-02-15T17:10:36;14.80;99.90
41168;DHT22;26906;45.658;9.272;2023-02-15T17:15:37;14.60;99.90
41168;DHT22;26906;45.658;9.272;2023-02-15T17:18:19;14.50;99.90
41168;DHT22;26906;45.658;9.272;2023-02-15T17:20:48;14.40;99.90
41168;DHT22;26906;45.658;9.272;2023-02-15T17:23:39;14.20;99.90
41168;DHT22;26906;45.658;9.272;2023-02-15T17:26:35;14.20;99.90
41168;DHT22;26906;45.658;9.272;2023-02-15T17:29:24;14.10;99.90
41168;DHT22;26906;45.658;9.272;2023-02-15T17:31:55;14.00;99.90
41168;DHT22;26906;45.658;9.272;2023-02-15T17:37:13;13.70;99.90
41168;DHT22;26906;45.658;9.272;2023-02-15T17:39:47;13.70;99.90
41168;DHT22;26906;45.658;9.272;2023-02-15T17:42:13;13.60;99.90
41168;DHT22;26906;45.658;9.272;2023-02-15T17:44:39;13.60;99.90
41168;DHT22;26906;45.658;9.272;2023-02-15T17:47:06;13.50;99.90
41168;DHT22;26906;45.658;9.272;2023-02-15T17:49:32;13.30;99.90
41168;DHT22;26906;45.658;9.272;2023-02-15T17:52:01;13.20;99.90
41168;DHT22;26906;45.658;9.272;2023-02-15T17:54:27;13.10;99.90
41168;DHT22;26906;45.658;9.272;2023-02-15T17:57:12;13.20;99.90
41168;DHT22;26906;45.658;9.272;2023-02-15T17:59:38;13.10;99.90
41168;DHT22;26906;45.658;9.272;2023-02-15T18:02:24;13.00;99.90
41168;DHT22;26906;45.658;9.272;2023-02-15T18:05:18;12.70;99.90
41168;DHT22;26906;45.658;9.272;2023-02-15T18:08:02;12.70;99.90
41168;DHT22;26906;45.658;9.272;2023-02-15T18:10:47;12.60;99.90
41168;DHT22;26906;45.658;9.272;2023-02-15T18:13:31;12.60;99.90
41168;DHT22;26906;45.658;9.272;2023-02-15T18:15:57;12.50;99.90
41168;DHT22;26906;45.658;9.272;2023-02-15T18:18:23;12.50;99.90
41168;DHT22;26906;45.658;9.272;2023-02-15T18:20:49;12.30;99.90
41168;DHT22;26906;45.658;9.272;2023-02-15T18:23:15;12.20;99.90
41168;DHT22;26906;45.658;9.272;2023-02-15T18:25:40;12.10;99.90
41168;DHT22;26906;45.658;9.272;2023-02-15T18:28:08;12.00;99.90
41168;DHT22;26906;45.658;9.272;2023-02-15T18:30:39;12.00;99.90
41168;DHT22;26906;45.658;9.272;2023-02-15T18:33:34;12.00;99.90
41168;DHT22;26906;45.658;9.272;2023-02-15T18:36:05;12.10;99.90
41168;DHT22;26906;45.658;9.272;2023-02-15T18:38:32;12.00;99.90
41168;DHT22;26906;45.658;9.272;2023-02-15T18:40:58;12.00;99.90
41168;DHT22;26906;45.658;9.272;2023-02-15T18:43:24;11.90;99.90
41168;DHT22;26906;45.658;9.272;2023-02-15T18:45:50;11.70;99.90
41168;DHT22;26906;45.658;9.272;2023-02-15T18:48:16;11.50;99.90
41168;DHT22;26906;45.658;9.272;2023-02-15T18:50:44;11.50;99.90
41168;DHT22;26906;45.658;9.272;2023-02-15T18:53:28;11.50;99.90
41168;DHT22;26906;45.658;9.272;2023-02-15T18:55:54;11.30;99.90
41168;DHT22;26906;45.658;9.272;2023-02-15T18:58:21;11.40;99.90
41168;DHT22;26906;45.658;9.272;2023-02-15T19:00:49;11.10;99.90
41168;DHT22;26906;45.658;9.272;2023-02-15T19:03:16;11.30;99.90
41168;DHT22;26906;45.658;9.272;2023-02-15T19:05:46;11.40;99.90
41168;DHT22;26906;45.658;9.272;2023-02-15T19:08:27;11.40;99.90
41168;DHT22;26906;45.658;9.272;2023-02-15T19:10:52;11.40;99.90
41168;DHT22;26906;45.658;9.272;2023-02-15T19:13:18;11.20;99.90
41168;DHT22;26906;45.658;9.272;2023-02-15T19:15:44;11.00;99.90
41168;DHT22;26906;45.658;9.272;2023-02-15T19:18:12;10.90;99.90
41168;DHT22;26906;45.658;9.272;2023-02-15T19:20:41;10.80;99.90
41168;DHT22;26906;45.658;9.272;2023-02-15T19:23:20;10.80;99.90
41168;DHT22;26906;45.658;9.272;2023-02-15T19:25:47;10.80;99.90
41168;DHT22;26906;45.658;9.272;2023-02-15T19:28:29;10.70;99.90
41168;DHT22;26906;45.658;9.272;2023-02-15T19:30:58;10.60;99.90
41168;DHT22;26906;45.658;9.272;2023-02-15T19:33:24;10.50;99.90
41168;DHT22;26906;45.658;9.272;2023-02-15T19:35:52;10.40;99.90
41168;DHT22;26906;45.658;9.272;2023-02-15T19:38:25;10.40;99.90
41168;DHT22;26906;45.658;9.272;2023-02-15T19:40:52;10.40;99.90
41168;DHT22;26906;45.658;9.272;2023-02-15T19:43:21;10.50;99.90
41168;DHT22;26906;45.658;9.272;2023-02-15T19:45:53;10.60;99.90
41168;DHT22;26906;45.658;9.272;2023-02-15T19:48:19;10.60;99.90
41168;DHT22;26906;45.658;9.272;2023-02-15T19:50:48;10.60;99.90
41168;DHT22;26906;45.658;9.272;2023-02-15T19:53:25;10.60;99.90
41168;DHT22;26906;45.658;9.272;2023-02-15T19:55:51;10.60;99.90
41168;DHT22;26906;45.658;9.272;2023-02-15T19:58:19;10.20;99.90
41168;DHT22;26906;45.658;9.272;2023-02-15T20:00:47;10.20;99.90
41168;DHT22;26906;45.658;9.272;2023-02-15T20:03:13;10.30;99.90
41168;DHT22;26906;45.658;9.272;2023-02-15T20:05:39;10.10;99.90
41168;DHT22;26906;45.658;9.272;2023-02-15T20:08:13;10.10;99.90
41168;DHT22;26906;45.658;9.272;2023-02-15T20:10:40;10.00;99.90
41168;DHT22;26906;45.658;9.272;2023-02-15T20:13:05;10.40;99.90
41168;DHT22;26906;45.658;9.272;2023-02-15T20:15:33;10.00;99.90
41168;DHT22;26906;45.658;9.272;2023-02-15T20:18:01;10.20;99.90
41168;DHT22;26906;45.658;9.272;2023-02-15T20:20:46;10.00;99.90
41168;DHT22;26906;45.658;9.272;2023-02-15T20:23:25;10.00;99.90
41168;DHT22;26906;45.658;9.272;2023-02-15T20:25:51;10.00;99.90
41168;DHT22;26906;45.658;9.272;2023-02-15T20:28:20;10.10;99.90
41168;DHT22;26906;45.658;9.272;2023-02-15T20:30:47;9.90;99.90
41168;DHT22;26906;45.658;9.272;2023-02-15T20:33:15;9.80;99.90
41168;DHT22;26906;45.658;9.272;2023-02-15T20:35:41;9.70;99.90
41168;DHT22;26906;45.658;9.272;2023-02-15T20:38:24;9.70;99.90
41168;DHT22;26906;45.658;9.272;2023-02-15T20:40:52;9.50;99.90
41168;DHT22;26906;45.658;9.272;2023-02-15T20:43:38;9.80;99.90
41168;DHT22;26906;45.658;9.272;2023-02-15T20:46:05;9.70;99.90
41168;DHT22;26906;45.658;9.272;2023-02-15T20:48:31;9.70;99.90
41168;DHT22;26906;45.658;9.272;2023-02-15T20:50:57;9.50;99.90
